sensor_id;sensor_type;location;lat;lon;timestamp;P1;durP1;ratioP1;P2;durP2;ratioP2
59970;SDS011;45825;45.434;9.116;2023-06-22T00:00:50;15.95;;;8.73;;
59970;SDS011;45825;45.434;9.116;2023-06-22T00:03:17;16.00;;;8.77;;
59970;SDS011;45825;45.434;9.116;2023-06-22T00:05:44;13.30;;;8.38;;
59970;SDS011;45825;45.434;9.116;2023-06-22T00:08:10;13.60;;;8.10;;
59970;SDS011;45825;45.434;9.116;2023-06-22T00:10:35;15.50;;;8.32;;
59970;SDS011;45825;45.434;9.116;2023-06-22T00:13:01;13.38;;;8.10;;
59970;SDS011;45825;45.434;9.116;2023-06-22T00:15:26;15.50;;;8.95;;
59970;SDS011;45825;45.434;9.116;2023-06-22T00:17:52;15.82;;;8.18;;
59970;SDS011;45825;45.434;9.116;2023-06-22T00:20:17;12.75;;;8.18;;
59970;SDS011;45825;45.434;9.116;2023-06-22T00:22:43;25.95;;;8.50;;
59970;SDS011;45825;45.434;9.116;2023-06-22T00:25:09;17.48;;;7.93;;
59970;SDS011;45825;45.434;9.116;2023-06-22T00:27:35;12.63;;;7.35;;
59970;SDS011;45825;45.434;9.116;2023-06-22T00:30:01;13.30;;;7.28;;
59970;SDS011;45825;45.434;9.116;2023-06-22T00:32:26;13.18;;;7.00;;
59970;SDS011;45825;45.434;9.116;2023-06-22T00:34:52;12.77;;;7.87;;
59970;SDS011;45825;45.434;9.116;2023-06-22T00:37:17;14.55;;;7.00;;
59970;SDS011;45825;45.434;9.116;2023-06-22T00:39:43;14.40;;;7.05;;
59970;SDS011;45825;45.434;9.116;2023-06-22T00:42:08;11.85;;;7.57;;
59970;SDS011;45825;45.434;9.116;2023-06-22T00:44:34;11.15;;;6.75;;
59970;SDS011;45825;45.434;9.116;2023-06-22T00:47:00;11.73;;;6.85;;
59970;SDS011;45825;45.434;9.116;2023-06-22T00:49:26;15.18;;;7.43;;
59970;SDS011;45825;45.434;9.116;2023-06-22T00:51:52;12.60;;;7.05;;
59970;SDS011;45825;45.434;9.116;2023-06-22T00:54:17;12.00;;;7.25;;
59970;SDS011;45825;45.434;9.116;2023-06-22T00:56:49;11.70;;;7.38;;
59970;SDS011;45825;45.434;9.116;2023-06-22T00:59:17;13.63;;;7.40;;
59970;SDS011;45825;45.434;9.116;2023-06-22T01:01:43;14.00;;;7.55;;
59970;SDS011;45825;45.434;9.116;2023-06-22T01:04:09;15.30;;;7.70;;
59970;SDS011;45825;45.434;9.116;2023-06-22T01:06:38;14.77;;;8.20;;
59970;SDS011;45825;45.434;9.116;2023-06-22T01:09:18;14.32;;;7.90;;
59970;SDS011;45825;45.434;9.116;2023-06-22T01:11:52;15.32;;;7.47;;
59970;SDS011;45825;45.434;9.116;2023-06-22T01:14:32;13.90;;;8.93;;
59970;SDS011;45825;45.434;9.116;2023-06-22T01:17:02;15.23;;;7.97;;
59970;SDS011;45825;45.434;9.116;2023-06-22T01:19:41;12.32;;;7.75;;
59970;SDS011;45825;45.434;9.116;2023-06-22T01:22:12;19.20;;;8.32;;
59970;SDS011;45825;45.434;9.116;2023-06-22T01:24:48;16.52;;;9.35;;
59970;SDS011;45825;45.434;9.116;2023-06-22T01:30:10;13.25;;;8.30;;
59970;SDS011;45825;45.434;9.116;2023-06-22T01:32:39;15.45;;;8.07;;
59970;SDS011;45825;45.434;9.116;2023-06-22T01:35:06;17.83;;;8.45;;
59970;SDS011;45825;45.434;9.116;2023-06-22T01:37:33;13.13;;;8.02;;
59970;SDS011;45825;45.434;9.116;2023-06-22T01:40:00;15.25;;;8.70;;
59970;SDS011;45825;45.434;9.116;2023-06-22T01:42:26;14.55;;;8.48;;
59970;SDS011;45825;45.434;9.116;2023-06-22T01:44:53;14.68;;;8.57;;
59970;SDS011;45825;45.434;9.116;2023-06-22T01:47:19;15.98;;;8.60;;
59970;SDS011;45825;45.434;9.116;2023-06-22T01:49:45;12.18;;;8.45;;
59970;SDS011;45825;45.434;9.116;2023-06-22T01:52:11;11.02;;;7.95;;
59970;SDS011;45825;45.434;9.116;2023-06-22T01:54:37;14.35;;;8.60;;
59970;SDS011;45825;45.434;9.116;2023-06-22T01:57:03;16.42;;;8.27;;
59970;SDS011;45825;45.434;9.116;2023-06-22T01:59:31;11.73;;;7.95;;
59970;SDS011;45825;45.434;9.116;2023-06-22T02:02:01;15.88;;;8.65;;
59970;SDS011;45825;45.434;9.116;2023-06-22T02:05:14;17.98;;;8.85;;
59970;SDS011;45825;45.434;9.116;2023-06-22T02:07:24;19.23;;;8.43;;
59970;SDS011;45825;45.434;9.116;2023-06-22T02:09:59;12.68;;;8.07;;
59970;SDS011;45825;45.434;9.116;2023-06-22T02:12:26;15.18;;;8.38;;
59970;SDS011;45825;45.434;9.116;2023-06-22T02:14:54;15.15;;;8.40;;
59970;SDS011;45825;45.434;9.116;2023-06-22T02:17:19;16.98;;;8.90;;
59970;SDS011;45825;45.434;9.116;2023-06-22T02:19:45;13.65;;;8.15;;
59970;SDS011;45825;45.434;9.116;2023-06-22T02:22:11;14.15;;;8.48;;
59970;SDS011;45825;45.434;9.116;2023-06-22T02:24:37;13.05;;;7.93;;
59970;SDS011;45825;45.434;9.116;2023-06-22T02:27:03;14.82;;;8.25;;
59970;SDS011;45825;45.434;9.116;2023-06-22T02:29:29;14.90;;;8.98;;
59970;SDS011;45825;45.434;9.116;2023-06-22T02:31:54;16.67;;;8.57;;
59970;SDS011;45825;45.434;9.116;2023-06-22T02:34:20;16.27;;;8.30;;
59970;SDS011;45825;45.434;9.116;2023-06-22T02:36:46;17.73;;;8.50;;
59970;SDS011;45825;45.434;9.116;2023-06-22T02:39:19;14.10;;;8.40;;
59970;SDS011;45825;45.434;9.116;2023-06-22T02:41:47;14.20;;;7.72;;
59970;SDS011;45825;45.434;9.116;2023-06-22T02:44:12;14.88;;;8.57;;
59970;SDS011;45825;45.434;9.116;2023-06-22T02:46:37;14.32;;;8.13;;
59970;SDS011;45825;45.434;9.116;2023-06-22T02:49:02;16.00;;;8.10;;
59970;SDS011;45825;45.434;9.116;2023-06-22T02:51:28;13.88;;;8.20;;
59970;SDS011;45825;45.434;9.116;2023-06-22T02:53:53;15.23;;;8.05;;
59970;SDS011;45825;45.434;9.116;2023-06-22T02:56:22;16.42;;;8.48;;
59970;SDS011;45825;45.434;9.116;2023-06-22T02:58:50;18.45;;;8.65;;
59970;SDS011;45825;45.434;9.116;2023-06-22T03:01:16;19.88;;;8.55;;
59970;SDS011;45825;45.434;9.116;2023-06-22T03:03:41;11.90;;;8.45;;
59970;SDS011;45825;45.434;9.116;2023-06-22T03:06:06;15.23;;;8.32;;
59970;SDS011;45825;45.434;9.116;2023-06-22T03:08:32;15.43;;;7.95;;
59970;SDS011;45825;45.434;9.116;2023-06-22T03:10:57;15.70;;;8.48;;
59970;SDS011;45825;45.434;9.116;2023-06-22T03:13:23;14.57;;;8.40;;
59970;SDS011;45825;45.434;9.116;2023-06-22T03:15:48;15.98;;;8.68;;
59970;SDS011;45825;45.434;9.116;2023-06-22T03:18:14;17.02;;;8.43;;
59970;SDS011;45825;45.434;9.116;2023-06-22T03:20:40;16.10;;;8.32;;
59970;SDS011;45825;45.434;9.116;2023-06-22T03:23:05;17.67;;;8.95;;
59970;SDS011;45825;45.434;9.116;2023-06-22T03:25:31;17.92;;;8.35;;
59970;SDS011;45825;45.434;9.116;2023-06-22T03:27:56;14.52;;;7.93;;
59970;SDS011;45825;45.434;9.116;2023-06-22T03:30:21;13.60;;;8.32;;
59970;SDS011;45825;45.434;9.116;2023-06-22T03:32:47;13.75;;;8.00;;
59970;SDS011;45825;45.434;9.116;2023-06-22T03:35:12;14.50;;;8.10;;
59970;SDS011;45825;45.434;9.116;2023-06-22T03:37:39;16.08;;;8.57;;
59970;SDS011;45825;45.434;9.116;2023-06-22T03:40:04;17.00;;;8.30;;
59970;SDS011;45825;45.434;9.116;2023-06-22T03:42:30;18.50;;;8.57;;
59970;SDS011;45825;45.434;9.116;2023-06-22T03:44:56;18.15;;;8.98;;
59970;SDS011;45825;45.434;9.116;2023-06-22T03:47:22;14.25;;;8.00;;
59970;SDS011;45825;45.434;9.116;2023-06-22T03:49:47;15.15;;;8.77;;
59970;SDS011;45825;45.434;9.116;2023-06-22T03:52:13;14.93;;;8.27;;
59970;SDS011;45825;45.434;9.116;2023-06-22T03:54:38;15.82;;;8.65;;
59970;SDS011;45825;45.434;9.116;2023-06-22T03:57:03;16.55;;;9.23;;
59970;SDS011;45825;45.434;9.116;2023-06-22T03:59:29;15.30;;;8.88;;
59970;SDS011;45825;45.434;9.116;2023-06-22T04:01:57;16.05;;;8.85;;
59970;SDS011;45825;45.434;9.116;2023-06-22T04:04:22;17.43;;;8.80;;
59970;SDS011;45825;45.434;9.116;2023-06-22T04:06:48;14.55;;;8.27;;
59970;SDS011;45825;45.434;9.116;2023-06-22T04:09:13;18.60;;;9.05;;
59970;SDS011;45825;45.434;9.116;2023-06-22T04:11:38;19.42;;;8.93;;
59970;SDS011;45825;45.434;9.116;2023-06-22T04:14:04;11.30;;;8.13;;
59970;SDS011;45825;45.434;9.116;2023-06-22T04:16:29;15.73;;;8.90;;
59970;SDS011;45825;45.434;9.116;2023-06-22T04:18:54;14.07;;;8.43;;
59970;SDS011;45825;45.434;9.116;2023-06-22T04:21:19;13.02;;;8.25;;
59970;SDS011;45825;45.434;9.116;2023-06-22T04:23:45;13.68;;;7.75;;
59970;SDS011;45825;45.434;9.116;2023-06-22T04:26:11;15.25;;;9.10;;
59970;SDS011;45825;45.434;9.116;2023-06-22T04:28:37;16.45;;;8.90;;
59970;SDS011;45825;45.434;9.116;2023-06-22T04:31:02;13.55;;;8.70;;
59970;SDS011;45825;45.434;9.116;2023-06-22T04:33:28;14.15;;;8.38;;
59970;SDS011;45825;45.434;9.116;2023-06-22T04:35:56;14.48;;;8.77;;
59970;SDS011;45825;45.434;9.116;2023-06-22T04:38:23;18.20;;;9.23;;
59970;SDS011;45825;45.434;9.116;2023-06-22T04:40:49;15.45;;;8.48;;
59970;SDS011;45825;45.434;9.116;2023-06-22T04:43:15;15.48;;;8.32;;
59970;SDS011;45825;45.434;9.116;2023-06-22T04:45:41;18.35;;;8.90;;
59970;SDS011;45825;45.434;9.116;2023-06-22T04:48:06;17.85;;;8.77;;
59970;SDS011;45825;45.434;9.116;2023-06-22T04:50:31;13.60;;;8.85;;
59970;SDS011;45825;45.434;9.116;2023-06-22T04:52:57;18.33;;;9.02;;
59970;SDS011;45825;45.434;9.116;2023-06-22T04:55:23;14.60;;;8.57;;
59970;SDS011;45825;45.434;9.116;2023-06-22T04:57:50;20.23;;;8.90;;
59970;SDS011;45825;45.434;9.116;2023-06-22T05:00:16;15.35;;;9.38;;
59970;SDS011;45825;45.434;9.116;2023-06-22T05:02:44;16.30;;;9.50;;
59970;SDS011;45825;45.434;9.116;2023-06-22T05:05:11;18.90;;;9.00;;
59970;SDS011;45825;45.434;9.116;2023-06-22T05:07:41;18.10;;;9.10;;
59970;SDS011;45825;45.434;9.116;2023-06-22T05:10:08;18.52;;;8.75;;
59970;SDS011;45825;45.434;9.116;2023-06-22T05:12:35;14.93;;;9.13;;
59970;SDS011;45825;45.434;9.116;2023-06-22T05:15:00;16.45;;;8.68;;
59970;SDS011;45825;45.434;9.116;2023-06-22T05:17:26;15.80;;;8.77;;
59970;SDS011;45825;45.434;9.116;2023-06-22T05:19:52;16.77;;;9.10;;
59970;SDS011;45825;45.434;9.116;2023-06-22T05:22:17;18.75;;;9.77;;
59970;SDS011;45825;45.434;9.116;2023-06-22T05:24:43;15.93;;;8.63;;
59970;SDS011;45825;45.434;9.116;2023-06-22T05:27:09;15.65;;;8.57;;
59970;SDS011;45825;45.434;9.116;2023-06-22T05:29:35;17.08;;;9.05;;
59970;SDS011;45825;45.434;9.116;2023-06-22T05:32:01;15.85;;;9.20;;
59970;SDS011;45825;45.434;9.116;2023-06-22T05:34:26;15.63;;;9.30;;
59970;SDS011;45825;45.434;9.116;2023-06-22T05:36:52;15.85;;;9.07;;
59970;SDS011;45825;45.434;9.116;2023-06-22T05:39:18;13.68;;;8.45;;
59970;SDS011;45825;45.434;9.116;2023-06-22T05:41:45;15.77;;;8.70;;
59970;SDS011;45825;45.434;9.116;2023-06-22T05:44:10;15.00;;;9.05;;
59970;SDS011;45825;45.434;9.116;2023-06-22T05:46:36;13.48;;;9.05;;
59970;SDS011;45825;45.434;9.116;2023-06-22T05:49:01;12.10;;;8.00;;
59970;SDS011;45825;45.434;9.116;2023-06-22T05:51:26;13.35;;;7.65;;
59970;SDS011;45825;45.434;9.116;2023-06-22T05:53:52;13.88;;;8.38;;
59970;SDS011;45825;45.434;9.116;2023-06-22T05:56:17;14.05;;;8.70;;
59970;SDS011;45825;45.434;9.116;2023-06-22T05:58:42;16.17;;;8.23;;
59970;SDS011;45825;45.434;9.116;2023-06-22T06:01:08;15.90;;;8.52;;
59970;SDS011;45825;45.434;9.116;2023-06-22T06:03:33;18.02;;;8.70;;
59970;SDS011;45825;45.434;9.116;2023-06-22T06:05:58;14.10;;;8.07;;
59970;SDS011;45825;45.434;9.116;2023-06-22T06:08:24;19.95;;;9.45;;
59970;SDS011;45825;45.434;9.116;2023-06-22T06:10:50;20.80;;;9.20;;
59970;SDS011;45825;45.434;9.116;2023-06-22T06:13:20;31.83;;;10.40;;
59970;SDS011;45825;45.434;9.116;2023-06-22T06:15:46;23.63;;;8.70;;
59970;SDS011;45825;45.434;9.116;2023-06-22T06:18:12;20.88;;;9.02;;
59970;SDS011;45825;45.434;9.116;2023-06-22T06:20:37;20.25;;;9.00;;
59970;SDS011;45825;45.434;9.116;2023-06-22T06:23:03;18.20;;;8.93;;
59970;SDS011;45825;45.434;9.116;2023-06-22T06:25:28;20.70;;;9.50;;
59970;SDS011;45825;45.434;9.116;2023-06-22T06:27:53;25.65;;;10.38;;
59970;SDS011;45825;45.434;9.116;2023-06-22T06:30:19;18.92;;;9.75;;
59970;SDS011;45825;45.434;9.116;2023-06-22T06:32:45;17.38;;;10.07;;
59970;SDS011;45825;45.434;9.116;2023-06-22T06:35:12;19.70;;;10.68;;
59970;SDS011;45825;45.434;9.116;2023-06-22T06:37:38;20.75;;;11.27;;
59970;SDS011;45825;45.434;9.116;2023-06-22T06:40:05;21.13;;;11.20;;
59970;SDS011;45825;45.434;9.116;2023-06-22T06:42:38;22.40;;;12.45;;
59970;SDS011;45825;45.434;9.116;2023-06-22T06:45:06;19.98;;;13.23;;
59970;SDS011;45825;45.434;9.116;2023-06-22T06:47:32;26.95;;;14.48;;
59970;SDS011;45825;45.434;9.116;2023-06-22T06:49:58;20.92;;;13.43;;
59970;SDS011;45825;45.434;9.116;2023-06-22T06:52:23;23.02;;;12.65;;
59970;SDS011;45825;45.434;9.116;2023-06-22T06:54:48;24.27;;;14.40;;
59970;SDS011;45825;45.434;9.116;2023-06-22T06:57:14;21.35;;;13.40;;
59970;SDS011;45825;45.434;9.116;2023-06-22T06:59:40;19.63;;;14.85;;
59970;SDS011;45825;45.434;9.116;2023-06-22T07:02:05;22.80;;;14.52;;
59970;SDS011;45825;45.434;9.116;2023-06-22T07:04:31;31.55;;;15.88;;
59970;SDS011;45825;45.434;9.116;2023-06-22T07:06:58;22.60;;;15.32;;
59970;SDS011;45825;45.434;9.116;2023-06-22T07:09:25;28.75;;;16.27;;
59970;SDS011;45825;45.434;9.116;2023-06-22T07:11:51;30.08;;;15.02;;
59970;SDS011;45825;45.434;9.116;2023-06-22T07:14:16;36.67;;;17.17;;
59970;SDS011;45825;45.434;9.116;2023-06-22T07:16:41;23.20;;;16.60;;
59970;SDS011;45825;45.434;9.116;2023-06-22T07:19:07;25.45;;;21.80;;
59970;SDS011;45825;45.434;9.116;2023-06-22T07:21:32;32.42;;;24.95;;
59970;SDS011;45825;45.434;9.116;2023-06-22T07:23:57;24.87;;;18.13;;
59970;SDS011;45825;45.434;9.116;2023-06-22T07:26:23;23.40;;;16.70;;
59970;SDS011;45825;45.434;9.116;2023-06-22T07:28:48;30.88;;;18.63;;
59970;SDS011;45825;45.434;9.116;2023-06-22T07:31:15;27.40;;;17.08;;
59970;SDS011;45825;45.434;9.116;2023-06-22T07:33:41;24.67;;;16.38;;
59970;SDS011;45825;45.434;9.116;2023-06-22T07:36:06;31.48;;;16.50;;
59970;SDS011;45825;45.434;9.116;2023-06-22T07:38:33;45.35;;;19.52;;
59970;SDS011;45825;45.434;9.116;2023-06-22T07:40:59;38.85;;;16.45;;
59970;SDS011;45825;45.434;9.116;2023-06-22T07:43:24;29.25;;;18.17;;
59970;SDS011;45825;45.434;9.116;2023-06-22T07:45:50;20.23;;;14.13;;
59970;SDS011;45825;45.434;9.116;2023-06-22T07:48:21;20.95;;;12.38;;
59970;SDS011;45825;45.434;9.116;2023-06-22T07:50:47;20.08;;;12.20;;
59970;SDS011;45825;45.434;9.116;2023-06-22T07:53:13;19.42;;;12.65;;
59970;SDS011;45825;45.434;9.116;2023-06-22T07:55:38;20.20;;;12.55;;
59970;SDS011;45825;45.434;9.116;2023-06-22T07:58:03;20.70;;;12.57;;
59970;SDS011;45825;45.434;9.116;2023-06-22T08:00:28;21.10;;;11.60;;
59970;SDS011;45825;45.434;9.116;2023-06-22T08:02:54;20.43;;;11.30;;
59970;SDS011;45825;45.434;9.116;2023-06-22T08:05:19;20.58;;;12.52;;
59970;SDS011;45825;45.434;9.116;2023-06-22T08:07:44;21.42;;;11.40;;
59970;SDS011;45825;45.434;9.116;2023-06-22T08:10:10;19.10;;;12.48;;
59970;SDS011;45825;45.434;9.116;2023-06-22T08:12:36;21.83;;;13.38;;
59970;SDS011;45825;45.434;9.116;2023-06-22T08:15:02;22.38;;;12.70;;
59970;SDS011;45825;45.434;9.116;2023-06-22T08:17:28;20.42;;;11.45;;
59970;SDS011;45825;45.434;9.116;2023-06-22T08:19:53;20.77;;;11.52;;
59970;SDS011;45825;45.434;9.116;2023-06-22T08:22:18;20.00;;;11.25;;
59970;SDS011;45825;45.434;9.116;2023-06-22T08:24:44;20.90;;;14.32;;
59970;SDS011;45825;45.434;9.116;2023-06-22T08:27:09;20.73;;;15.10;;
59970;SDS011;45825;45.434;9.116;2023-06-22T08:29:37;22.98;;;14.52;;
59970;SDS011;45825;45.434;9.116;2023-06-22T08:32:02;25.98;;;14.80;;
59970;SDS011;45825;45.434;9.116;2023-06-22T08:34:28;24.05;;;13.73;;
59970;SDS011;45825;45.434;9.116;2023-06-22T08:36:53;22.42;;;15.07;;
59970;SDS011;45825;45.434;9.116;2023-06-22T08:39:19;22.77;;;14.48;;
59970;SDS011;45825;45.434;9.116;2023-06-22T08:41:45;21.83;;;14.20;;
59970;SDS011;45825;45.434;9.116;2023-06-22T08:44:11;25.77;;;14.95;;
59970;SDS011;45825;45.434;9.116;2023-06-22T08:46:36;25.73;;;14.95;;
59970;SDS011;45825;45.434;9.116;2023-06-22T08:49:03;24.88;;;17.30;;
59970;SDS011;45825;45.434;9.116;2023-06-22T08:51:29;30.42;;;19.75;;
59970;SDS011;45825;45.434;9.116;2023-06-22T08:53:54;21.17;;;16.00;;
59970;SDS011;45825;45.434;9.116;2023-06-22T08:56:19;25.38;;;15.07;;
59970;SDS011;45825;45.434;9.116;2023-06-22T08:58:45;23.85;;;16.23;;
59970;SDS011;45825;45.434;9.116;2023-06-22T09:01:10;25.83;;;18.38;;
59970;SDS011;45825;45.434;9.116;2023-06-22T09:03:35;27.88;;;17.17;;
59970;SDS011;45825;45.434;9.116;2023-06-22T09:06:02;25.55;;;17.98;;
59970;SDS011;45825;45.434;9.116;2023-06-22T09:08:28;28.80;;;18.30;;
59970;SDS011;45825;45.434;9.116;2023-06-22T09:10:53;22.92;;;17.85;;
59970;SDS011;45825;45.434;9.116;2023-06-22T09:13:18;25.63;;;16.05;;
59970;SDS011;45825;45.434;9.116;2023-06-22T09:15:44;24.05;;;14.65;;
59970;SDS011;45825;45.434;9.116;2023-06-22T09:18:13;22.50;;;15.48;;
59970;SDS011;45825;45.434;9.116;2023-06-22T09:20:38;21.83;;;15.85;;
59970;SDS011;45825;45.434;9.116;2023-06-22T09:23:04;21.08;;;15.18;;
59970;SDS011;45825;45.434;9.116;2023-06-22T09:25:29;24.83;;;16.13;;
59970;SDS011;45825;45.434;9.116;2023-06-22T09:27:54;24.30;;;16.52;;
59970;SDS011;45825;45.434;9.116;2023-06-22T09:30:20;23.85;;;15.00;;
59970;SDS011;45825;45.434;9.116;2023-06-22T09:32:45;25.15;;;14.27;;
59970;SDS011;45825;45.434;9.116;2023-06-22T09:35:11;20.83;;;14.93;;
59970;SDS011;45825;45.434;9.116;2023-06-22T09:37:38;26.55;;;16.60;;
59970;SDS011;45825;45.434;9.116;2023-06-22T09:40:04;22.33;;;15.05;;
59970;SDS011;45825;45.434;9.116;2023-06-22T09:42:33;22.02;;;15.40;;
59970;SDS011;45825;45.434;9.116;2023-06-22T09:44:59;28.00;;;17.08;;
59970;SDS011;45825;45.434;9.116;2023-06-22T09:47:26;22.42;;;13.98;;
59970;SDS011;45825;45.434;9.116;2023-06-22T09:49:53;21.23;;;15.00;;
59970;SDS011;45825;45.434;9.116;2023-06-22T09:52:20;19.67;;;13.32;;
59970;SDS011;45825;45.434;9.116;2023-06-22T09:54:46;19.90;;;14.02;;
59970;SDS011;45825;45.434;9.116;2023-06-22T09:57:11;21.05;;;14.27;;
59970;SDS011;45825;45.434;9.116;2023-06-22T09:59:36;20.70;;;12.80;;
59970;SDS011;45825;45.434;9.116;2023-06-22T10:02:02;20.90;;;12.35;;
59970;SDS011;45825;45.434;9.116;2023-06-22T10:04:27;18.95;;;12.13;;
59970;SDS011;45825;45.434;9.116;2023-06-22T10:06:52;19.73;;;11.75;;
59970;SDS011;45825;45.434;9.116;2023-06-22T10:09:17;19.90;;;11.10;;
59970;SDS011;45825;45.434;9.116;2023-06-22T10:11:43;16.88;;;11.07;;
59970;SDS011;45825;45.434;9.116;2023-06-22T10:14:08;21.73;;;11.40;;
59970;SDS011;45825;45.434;9.116;2023-06-22T10:16:35;19.90;;;11.57;;
59970;SDS011;45825;45.434;9.116;2023-06-22T10:19:01;18.08;;;10.88;;
59970;SDS011;45825;45.434;9.116;2023-06-22T10:21:26;19.55;;;11.05;;
59970;SDS011;45825;45.434;9.116;2023-06-22T10:23:54;17.48;;;9.88;;
59970;SDS011;45825;45.434;9.116;2023-06-22T10:26:20;16.02;;;9.38;;
59970;SDS011;45825;45.434;9.116;2023-06-22T10:28:46;13.52;;;8.38;;
59970;SDS011;45825;45.434;9.116;2023-06-22T10:31:11;20.13;;;9.43;;
59970;SDS011;45825;45.434;9.116;2023-06-22T10:33:36;13.70;;;8.20;;
59970;SDS011;45825;45.434;9.116;2023-06-22T10:36:01;14.33;;;8.60;;
59970;SDS011;45825;45.434;9.116;2023-06-22T10:38:27;13.30;;;6.60;;
59970;SDS011;45825;45.434;9.116;2023-06-22T10:40:52;13.50;;;5.73;;
59970;SDS011;45825;45.434;9.116;2023-06-22T10:43:17;11.75;;;6.40;;
59970;SDS011;45825;45.434;9.116;2023-06-22T10:45:43;13.73;;;7.30;;
59970;SDS011;45825;45.434;9.116;2023-06-22T10:48:08;22.17;;;8.40;;
59970;SDS011;45825;45.434;9.116;2023-06-22T10:50:34;12.80;;;7.50;;
59970;SDS011;45825;45.434;9.116;2023-06-22T10:52:59;16.67;;;7.67;;
59970;SDS011;45825;45.434;9.116;2023-06-22T10:55:24;14.48;;;8.05;;
59970;SDS011;45825;45.434;9.116;2023-06-22T10:57:50;15.13;;;8.70;;
59970;SDS011;45825;45.434;9.116;2023-06-22T11:00:15;15.40;;;8.80;;
59970;SDS011;45825;45.434;9.116;2023-06-22T11:02:41;14.32;;;8.50;;
59970;SDS011;45825;45.434;9.116;2023-06-22T11:05:06;14.57;;;8.20;;
59970;SDS011;45825;45.434;9.116;2023-06-22T11:07:33;15.20;;;7.88;;
59970;SDS011;45825;45.434;9.116;2023-06-22T11:09:58;14.35;;;7.50;;
59970;SDS011;45825;45.434;9.116;2023-06-22T11:12:23;14.60;;;7.47;;
59970;SDS011;45825;45.434;9.116;2023-06-22T11:14:49;15.07;;;8.35;;
59970;SDS011;45825;45.434;9.116;2023-06-22T11:17:16;14.48;;;7.10;;
59970;SDS011;45825;45.434;9.116;2023-06-22T11:19:42;13.63;;;6.82;;
59970;SDS011;45825;45.434;9.116;2023-06-22T11:22:07;11.27;;;6.17;;
59970;SDS011;45825;45.434;9.116;2023-06-22T11:24:32;11.20;;;6.60;;
59970;SDS011;45825;45.434;9.116;2023-06-22T11:26:58;10.13;;;6.55;;
59970;SDS011;45825;45.434;9.116;2023-06-22T11:29:23;13.98;;;6.70;;
59970;SDS011;45825;45.434;9.116;2023-06-22T11:31:48;14.90;;;7.68;;
59970;SDS011;45825;45.434;9.116;2023-06-22T11:34:14;12.13;;;6.67;;
59970;SDS011;45825;45.434;9.116;2023-06-22T11:36:39;11.52;;;7.20;;
59970;SDS011;45825;45.434;9.116;2023-06-22T11:39:05;10.98;;;7.13;;
59970;SDS011;45825;45.434;9.116;2023-06-22T11:41:30;18.15;;;7.30;;
59970;SDS011;45825;45.434;9.116;2023-06-22T11:43:56;13.60;;;6.80;;
59970;SDS011;45825;45.434;9.116;2023-06-22T11:46:21;11.97;;;8.13;;
59970;SDS011;45825;45.434;9.116;2023-06-22T11:48:46;12.45;;;7.18;;
59970;SDS011;45825;45.434;9.116;2023-06-22T11:51:11;12.03;;;6.83;;
59970;SDS011;45825;45.434;9.116;2023-06-22T11:53:37;11.90;;;6.65;;
59970;SDS011;45825;45.434;9.116;2023-06-22T11:56:02;12.82;;;6.93;;
59970;SDS011;45825;45.434;9.116;2023-06-22T11:58:27;10.98;;;7.20;;
59970;SDS011;45825;45.434;9.116;2023-06-22T12:00:53;15.18;;;7.57;;
59970;SDS011;45825;45.434;9.116;2023-06-22T12:03:19;13.15;;;7.30;;
59970;SDS011;45825;45.434;9.116;2023-06-22T12:05:46;12.93;;;7.90;;
59970;SDS011;45825;45.434;9.116;2023-06-22T12:08:11;15.10;;;8.50;;
59970;SDS011;45825;45.434;9.116;2023-06-22T12:10:38;13.60;;;7.70;;
59970;SDS011;45825;45.434;9.116;2023-06-22T12:13:03;13.75;;;7.45;;
59970;SDS011;45825;45.434;9.116;2023-06-22T12:15:29;12.88;;;7.50;;
59970;SDS011;45825;45.434;9.116;2023-06-22T12:17:54;14.23;;;7.10;;
59970;SDS011;45825;45.434;9.116;2023-06-22T12:20:19;13.13;;;7.17;;
59970;SDS011;45825;45.434;9.116;2023-06-22T12:22:44;12.70;;;7.00;;
59970;SDS011;45825;45.434;9.116;2023-06-22T12:25:10;15.48;;;7.20;;
59970;SDS011;45825;45.434;9.116;2023-06-22T12:27:36;11.10;;;6.82;;
59970;SDS011;45825;45.434;9.116;2023-06-22T12:30:02;14.15;;;6.60;;
59970;SDS011;45825;45.434;9.116;2023-06-22T12:32:28;14.77;;;7.25;;
59970;SDS011;45825;45.434;9.116;2023-06-22T12:34:53;14.68;;;7.00;;
59970;SDS011;45825;45.434;9.116;2023-06-22T12:37:18;12.75;;;7.15;;
59970;SDS011;45825;45.434;9.116;2023-06-22T12:39:44;10.25;;;7.03;;
59970;SDS011;45825;45.434;9.116;2023-06-22T12:42:09;10.77;;;6.78;;
59970;SDS011;45825;45.434;9.116;2023-06-22T12:44:37;13.15;;;6.97;;
59970;SDS011;45825;45.434;9.116;2023-06-22T12:47:03;12.40;;;6.93;;
59970;SDS011;45825;45.434;9.116;2023-06-22T12:49:28;13.82;;;7.35;;
59970;SDS011;45825;45.434;9.116;2023-06-22T12:51:54;12.87;;;7.53;;
59970;SDS011;45825;45.434;9.116;2023-06-22T12:54:19;13.90;;;7.75;;
59970;SDS011;45825;45.434;9.116;2023-06-22T12:56:44;14.48;;;6.80;;
59970;SDS011;45825;45.434;9.116;2023-06-22T12:59:10;13.00;;;7.35;;
59970;SDS011;45825;45.434;9.116;2023-06-22T13:01:36;10.93;;;6.97;;
59970;SDS011;45825;45.434;9.116;2023-06-22T13:04:02;14.52;;;6.88;;
59970;SDS011;45825;45.434;9.116;2023-06-22T13:06:28;18.05;;;7.70;;
59970;SDS011;45825;45.434;9.116;2023-06-22T13:08:53;12.75;;;7.38;;
59970;SDS011;45825;45.434;9.116;2023-06-22T13:11:18;12.65;;;7.03;;
59970;SDS011;45825;45.434;9.116;2023-06-22T13:13:44;12.98;;;7.78;;
59970;SDS011;45825;45.434;9.116;2023-06-22T13:16:10;15.43;;;7.68;;
59970;SDS011;45825;45.434;9.116;2023-06-22T13:18:36;11.00;;;6.80;;
59970;SDS011;45825;45.434;9.116;2023-06-22T13:21:01;13.48;;;6.72;;
59970;SDS011;45825;45.434;9.116;2023-06-22T13:23:27;16.95;;;7.15;;
59970;SDS011;45825;45.434;9.116;2023-06-22T13:25:53;11.00;;;6.97;;
59970;SDS011;45825;45.434;9.116;2023-06-22T13:28:18;12.48;;;6.60;;
59970;SDS011;45825;45.434;9.116;2023-06-22T13:30:43;14.35;;;7.13;;
59970;SDS011;45825;45.434;9.116;2023-06-22T13:33:12;14.85;;;7.10;;
59970;SDS011;45825;45.434;9.116;2023-06-22T13:35:37;13.60;;;6.97;;
59970;SDS011;45825;45.434;9.116;2023-06-22T13:38:03;12.93;;;6.78;;
59970;SDS011;45825;45.434;9.116;2023-06-22T13:40:28;10.93;;;6.90;;
59970;SDS011;45825;45.434;9.116;2023-06-22T13:42:54;15.82;;;7.00;;
59970;SDS011;45825;45.434;9.116;2023-06-22T13:45:20;12.25;;;6.70;;
59970;SDS011;45825;45.434;9.116;2023-06-22T13:47:45;13.15;;;6.80;;
59970;SDS011;45825;45.434;9.116;2023-06-22T13:50:11;12.73;;;6.45;;
59970;SDS011;45825;45.434;9.116;2023-06-22T13:52:37;14.10;;;6.82;;
59970;SDS011;45825;45.434;9.116;2023-06-22T13:55:03;12.65;;;6.82;;
59970;SDS011;45825;45.434;9.116;2023-06-22T13:57:29;12.02;;;6.85;;
59970;SDS011;45825;45.434;9.116;2023-06-22T13:59:55;13.05;;;6.88;;
59970;SDS011;45825;45.434;9.116;2023-06-22T14:02:20;14.75;;;6.95;;
59970;SDS011;45825;45.434;9.116;2023-06-22T14:04:45;11.93;;;6.80;;
59970;SDS011;45825;45.434;9.116;2023-06-22T14:07:11;15.40;;;7.13;;
59970;SDS011;45825;45.434;9.116;2023-06-22T14:09:36;14.95;;;7.20;;
59970;SDS011;45825;45.434;9.116;2023-06-22T14:12:05;15.05;;;6.93;;
59970;SDS011;45825;45.434;9.116;2023-06-22T14:14:32;14.48;;;7.05;;
59970;SDS011;45825;45.434;9.116;2023-06-22T14:16:58;14.48;;;6.82;;
59970;SDS011;45825;45.434;9.116;2023-06-22T14:19:23;13.10;;;7.00;;
59970;SDS011;45825;45.434;9.116;2023-06-22T14:21:49;14.38;;;7.00;;
59970;SDS011;45825;45.434;9.116;2023-06-22T14:24:15;13.07;;;6.75;;
59970;SDS011;45825;45.434;9.116;2023-06-22T14:26:40;13.90;;;6.60;;